sensor_id;sensor_type;location;lat;lon;timestamp;P1;durP1;ratioP1;P2;durP2;ratioP2
58528;SDS011;44322;52.968;5.816;2023-06-05T00:01:35;9.43;;;6.78;;
58528;SDS011;44322;52.968;5.816;2023-06-05T00:04:01;9.43;;;6.90;;
58528;SDS011;44322;52.968;5.816;2023-06-05T00:06:26;8.95;;;6.55;;
58528;SDS011;44322;52.968;5.816;2023-06-05T00:08:52;11.63;;;6.93;;
58528;SDS011;44322;52.968;5.816;2023-06-05T00:11:17;11.60;;;6.70;;
58528;SDS011;44322;52.968;5.816;2023-06-05T00:13:43;9.98;;;6.45;;
58528;SDS011;44322;52.968;5.816;2023-06-05T00:16:08;8.60;;;6.43;;
58528;SDS011;44322;52.968;5.816;2023-06-05T00:18:34;8.65;;;6.47;;
58528;SDS011;44322;52.968;5.816;2023-06-05T00:21:00;9.32;;;6.88;;
58528;SDS011;44322;52.968;5.816;2023-06-05T00:23:25;9.00;;;6.35;;
58528;SDS011;44322;52.968;5.816;2023-06-05T00:25:51;10.45;;;6.82;;
58528;SDS011;44322;52.968;5.816;2023-06-05T00:28:16;9.38;;;6.57;;
58528;SDS011;44322;52.968;5.816;2023-06-05T00:30:42;11.95;;;7.10;;
58528;SDS011;44322;52.968;5.816;2023-06-05T00:33:08;8.95;;;6.25;;
58528;SDS011;44322;52.968;5.816;2023-06-05T00:35:34;8.00;;;5.93;;
58528;SDS011;44322;52.968;5.816;2023-06-05T00:37:59;8.45;;;5.55;;
58528;SDS011;44322;52.968;5.816;2023-06-05T00:40:25;10.55;;;6.35;;
58528;SDS011;44322;52.968;5.816;2023-06-05T00:42:50;9.68;;;6.55;;
58528;SDS011;44322;52.968;5.816;2023-06-05T00:45:16;10.88;;;6.85;;
58528;SDS011;44322;52.968;5.816;2023-06-05T00:47:42;10.90;;;6.65;;
58528;SDS011;44322;52.968;5.816;2023-06-05T00:50:08;9.55;;;6.75;;
58528;SDS011;44322;52.968;5.816;2023-06-05T00:52:34;8.15;;;5.20;;
58528;SDS011;44322;52.968;5.816;2023-06-05T00:55:00;10.05;;;7.03;;
58528;SDS011;44322;52.968;5.816;2023-06-05T00:57:26;8.82;;;5.78;;
58528;SDS011;44322;52.968;5.816;2023-06-05T00:59:53;10.98;;;7.07;;
58528;SDS011;44322;52.968;5.816;2023-06-05T01:02:19;8.27;;;6.20;;
58528;SDS011;44322;52.968;5.816;2023-06-05T01:07:13;8.25;;;5.53;;
58528;SDS011;44322;52.968;5.816;2023-06-05T01:09:42;7.75;;;5.43;;
58528;SDS011;44322;52.968;5.816;2023-06-05T01:14:58;8.05;;;5.28;;
58528;SDS011;44322;52.968;5.816;2023-06-05T01:17:27;9.25;;;6.30;;
58528;SDS011;44322;52.968;5.816;2023-06-05T01:19:57;10.00;;;6.15;;
58528;SDS011;44322;52.968;5.816;2023-06-05T01:22:29;8.00;;;6.32;;
58528;SDS011;44322;52.968;5.816;2023-06-05T01:24:55;9.65;;;6.63;;
58528;SDS011;44322;52.968;5.816;2023-06-05T01:27:27;9.13;;;5.93;;
58528;SDS011;44322;52.968;5.816;2023-06-05T01:32:43;10.02;;;6.38;;
58528;SDS011;44322;52.968;5.816;2023-06-05T01:35:18;9.38;;;6.35;;
58528;SDS011;44322;52.968;5.816;2023-06-05T01:37:46;10.13;;;6.07;;
58528;SDS011;44322;52.968;5.816;2023-06-05T01:42:41;10.07;;;6.15;;
58528;SDS011;44322;52.968;5.816;2023-06-05T01:45:07;8.55;;;6.05;;
58528;SDS011;44322;52.968;5.816;2023-06-05T01:47:35;7.55;;;5.82;;
58528;SDS011;44322;52.968;5.816;2023-06-05T01:50:01;9.85;;;6.13;;
58528;SDS011;44322;52.968;5.816;2023-06-05T01:52:27;7.72;;;5.05;;
58528;SDS011;44322;52.968;5.816;2023-06-05T01:54:54;9.88;;;6.53;;
58528;SDS011;44322;52.968;5.816;2023-06-05T01:57:23;8.90;;;6.07;;
58528;SDS011;44322;52.968;5.816;2023-06-05T01:59:49;8.18;;;5.63;;
58528;SDS011;44322;52.968;5.816;2023-06-05T02:02:15;10.73;;;6.95;;
58528;SDS011;44322;52.968;5.816;2023-06-05T02:04:42;8.45;;;5.57;;
58528;SDS011;44322;52.968;5.816;2023-06-05T02:07:07;11.30;;;6.95;;
58528;SDS011;44322;52.968;5.816;2023-06-05T02:09:33;10.65;;;5.70;;
58528;SDS011;44322;52.968;5.816;2023-06-05T02:11:59;9.90;;;6.32;;
58528;SDS011;44322;52.968;5.816;2023-06-05T02:14:29;10.68;;;6.32;;
58528;SDS011;44322;52.968;5.816;2023-06-05T02:19:22;10.43;;;6.07;;
58528;SDS011;44322;52.968;5.816;2023-06-05T02:21:49;10.43;;;6.20;;
58528;SDS011;44322;52.968;5.816;2023-06-05T02:24:17;7.70;;;5.60;;
58528;SDS011;44322;52.968;5.816;2023-06-05T02:26:44;9.63;;;6.38;;
58528;SDS011;44322;52.968;5.816;2023-06-05T02:29:10;11.35;;;6.18;;
58528;SDS011;44322;52.968;5.816;2023-06-05T02:31:35;9.68;;;6.13;;
58528;SDS011;44322;52.968;5.816;2023-06-05T02:34:02;9.35;;;5.97;;
58528;SDS011;44322;52.968;5.816;2023-06-05T02:36:28;9.90;;;6.10;;
58528;SDS011;44322;52.968;5.816;2023-06-05T02:38:58;9.10;;;5.95;;
58528;SDS011;44322;52.968;5.816;2023-06-05T02:41:25;7.88;;;5.22;;
58528;SDS011;44322;52.968;5.816;2023-06-05T02:43:52;7.63;;;5.57;;
58528;SDS011;44322;52.968;5.816;2023-06-05T02:46:20;9.32;;;6.13;;
58528;SDS011;44322;52.968;5.816;2023-06-05T02:48:53;9.60;;;6.28;;
58528;SDS011;44322;52.968;5.816;2023-06-05T02:51:19;10.00;;;5.75;;
58528;SDS011;44322;52.968;5.816;2023-06-05T02:53:46;7.88;;;5.45;;
58528;SDS011;44322;52.968;5.816;2023-06-05T02:56:14;8.35;;;5.50;;
58528;SDS011;44322;52.968;5.816;2023-06-05T02:58:41;7.28;;;4.93;;
58528;SDS011;44322;52.968;5.816;2023-06-05T03:01:09;9.23;;;5.00;;
58528;SDS011;44322;52.968;5.816;2023-06-05T03:03:41;7.85;;;4.85;;
58528;SDS011;44322;52.968;5.816;2023-06-05T03:06:07;8.00;;;5.00;;
58528;SDS011;44322;52.968;5.816;2023-06-05T03:08:37;7.47;;;5.47;;
58528;SDS011;44322;52.968;5.816;2023-06-05T03:11:04;7.75;;;5.18;;
58528;SDS011;44322;52.968;5.816;2023-06-05T03:13:31;8.38;;;4.90;;
58528;SDS011;44322;52.968;5.816;2023-06-05T03:15:58;7.40;;;4.60;;
58528;SDS011;44322;52.968;5.816;2023-06-05T03:18:27;8.07;;;5.30;;
58528;SDS011;44322;52.968;5.816;2023-06-05T03:20:56;7.03;;;4.28;;
58528;SDS011;44322;52.968;5.816;2023-06-05T03:23:23;6.93;;;4.25;;
58528;SDS011;44322;52.968;5.816;2023-06-05T03:25:50;6.05;;;4.13;;
58528;SDS011;44322;52.968;5.816;2023-06-05T03:30:47;5.82;;;4.03;;
58528;SDS011;44322;52.968;5.816;2023-06-05T03:33:14;6.95;;;4.18;;
58528;SDS011;44322;52.968;5.816;2023-06-05T03:35:42;6.75;;;4.50;;
58528;SDS011;44322;52.968;5.816;2023-06-05T03:38:11;6.72;;;4.28;;
58528;SDS011;44322;52.968;5.816;2023-06-05T03:40:37;8.18;;;4.38;;
58528;SDS011;44322;52.968;5.816;2023-06-05T03:43:08;6.22;;;4.25;;
58528;SDS011;44322;52.968;5.816;2023-06-05T03:45:36;7.45;;;4.40;;
58528;SDS011;44322;52.968;5.816;2023-06-05T03:48:04;7.00;;;4.00;;
58528;SDS011;44322;52.968;5.816;2023-06-05T03:50:34;5.97;;;4.30;;
58528;SDS011;44322;52.968;5.816;2023-06-05T03:53:03;7.55;;;4.97;;
58528;SDS011;44322;52.968;5.816;2023-06-05T03:55:33;8.77;;;5.87;;
58528;SDS011;44322;52.968;5.816;2023-06-05T03:58:23;9.75;;;5.68;;
58528;SDS011;44322;52.968;5.816;2023-06-05T04:00:52;7.90;;;6.10;;
58528;SDS011;44322;52.968;5.816;2023-06-05T04:03:19;7.72;;;5.72;;
58528;SDS011;44322;52.968;5.816;2023-06-05T04:05:48;6.78;;;5.07;;
58528;SDS011;44322;52.968;5.816;2023-06-05T04:08:13;8.10;;;5.32;;
58528;SDS011;44322;52.968;5.816;2023-06-05T04:10:39;9.52;;;5.72;;
58528;SDS011;44322;52.968;5.816;2023-06-05T04:13:05;9.55;;;6.13;;
58528;SDS011;44322;52.968;5.816;2023-06-05T04:15:33;9.40;;;5.43;;
58528;SDS011;44322;52.968;5.816;2023-06-05T04:18:00;7.80;;;5.68;;
58528;SDS011;44322;52.968;5.816;2023-06-05T04:20:25;7.38;;;5.05;;
58528;SDS011;44322;52.968;5.816;2023-06-05T04:22:51;7.20;;;4.55;;
58528;SDS011;44322;52.968;5.816;2023-06-05T04:25:17;10.48;;;5.97;;
58528;SDS011;44322;52.968;5.816;2023-06-05T04:27:46;7.35;;;5.72;;
58528;SDS011;44322;52.968;5.816;2023-06-05T04:30:14;9.10;;;5.57;;
58528;SDS011;44322;52.968;5.816;2023-06-05T04:32:41;8.32;;;5.30;;
58528;SDS011;44322;52.968;5.816;2023-06-05T04:35:07;8.85;;;6.22;;
58528;SDS011;44322;52.968;5.816;2023-06-05T04:37:37;7.45;;;5.45;;
58528;SDS011;44322;52.968;5.816;2023-06-05T04:40:04;10.88;;;6.72;;
58528;SDS011;44322;52.968;5.816;2023-06-05T04:42:32;10.43;;;6.60;;
58528;SDS011;44322;52.968;5.816;2023-06-05T04:44:59;10.20;;;6.50;;
58528;SDS011;44322;52.968;5.816;2023-06-05T04:47:27;9.70;;;6.40;;
58528;SDS011;44322;52.968;5.816;2023-06-05T04:49:53;8.77;;;6.30;;
58528;SDS011;44322;52.968;5.816;2023-06-05T04:52:21;10.35;;;6.63;;
58528;SDS011;44322;52.968;5.816;2023-06-05T04:54:48;9.80;;;6.78;;
58528;SDS011;44322;52.968;5.816;2023-06-05T04:57:15;10.40;;;7.10;;
58528;SDS011;44322;52.968;5.816;2023-06-05T04:59:42;9.50;;;6.43;;
58528;SDS011;44322;52.968;5.816;2023-06-05T05:02:09;10.00;;;6.63;;
58528;SDS011;44322;52.968;5.816;2023-06-05T05:04:36;10.75;;;6.60;;
58528;SDS011;44322;52.968;5.816;2023-06-05T05:07:01;8.05;;;5.75;;
58528;SDS011;44322;52.968;5.816;2023-06-05T05:09:28;7.60;;;5.43;;
58528;SDS011;44322;52.968;5.816;2023-06-05T05:11:54;7.32;;;5.38;;
58528;SDS011;44322;52.968;5.816;2023-06-05T05:14:20;8.48;;;5.18;;
58528;SDS011;44322;52.968;5.816;2023-06-05T05:16:46;7.63;;;5.22;;
58528;SDS011;44322;52.968;5.816;2023-06-05T05:19:11;9.43;;;4.95;;
58528;SDS011;44322;52.968;5.816;2023-06-05T05:21:37;5.30;;;3.92;;
58528;SDS011;44322;52.968;5.816;2023-06-05T05:24:03;6.70;;;4.30;;
58528;SDS011;44322;52.968;5.816;2023-06-05T05:26:29;7.28;;;4.07;;
58528;SDS011;44322;52.968;5.816;2023-06-05T05:28:55;5.43;;;3.75;;
58528;SDS011;44322;52.968;5.816;2023-06-05T05:31:21;5.85;;;4.00;;
58528;SDS011;44322;52.968;5.816;2023-06-05T05:33:46;6.57;;;4.38;;
58528;SDS011;44322;52.968;5.816;2023-06-05T05:36:13;5.20;;;3.55;;
58528;SDS011;44322;52.968;5.816;2023-06-05T05:38:40;4.63;;;3.38;;
58528;SDS011;44322;52.968;5.816;2023-06-05T05:41:05;5.90;;;3.58;;
58528;SDS011;44322;52.968;5.816;2023-06-05T05:43:31;5.25;;;3.42;;
58528;SDS011;44322;52.968;5.816;2023-06-05T05:45:56;6.05;;;3.30;;
58528;SDS011;44322;52.968;5.816;2023-06-05T05:48:22;6.05;;;3.05;;
58528;SDS011;44322;52.968;5.816;2023-06-05T05:50:48;5.05;;;3.35;;
58528;SDS011;44322;52.968;5.816;2023-06-05T05:53:14;4.25;;;2.78;;
58528;SDS011;44322;52.968;5.816;2023-06-05T05:55:40;3.83;;;2.85;;
58528;SDS011;44322;52.968;5.816;2023-06-05T05:58:05;3.65;;;2.65;;
58528;SDS011;44322;52.968;5.816;2023-06-05T06:00:31;3.30;;;2.70;;
58528;SDS011;44322;52.968;5.816;2023-06-05T06:02:57;4.82;;;2.88;;
58528;SDS011;44322;52.968;5.816;2023-06-05T06:05:24;3.92;;;2.40;;
58528;SDS011;44322;52.968;5.816;2023-06-05T06:07:49;2.97;;;2.60;;
58528;SDS011;44322;52.968;5.816;2023-06-05T06:10:15;4.10;;;2.50;;
58528;SDS011;44322;52.968;5.816;2023-06-05T06:12:41;3.35;;;2.60;;
58528;SDS011;44322;52.968;5.816;2023-06-05T06:15:09;3.40;;;2.47;;
58528;SDS011;44322;52.968;5.816;2023-06-05T06:17:36;4.47;;;2.67;;
58528;SDS011;44322;52.968;5.816;2023-06-05T06:20:03;3.20;;;2.22;;
58528;SDS011;44322;52.968;5.816;2023-06-05T06:24:56;3.47;;;2.50;;
58528;SDS011;44322;52.968;5.816;2023-06-05T06:27:22;3.45;;;2.92;;
58528;SDS011;44322;52.968;5.816;2023-06-05T06:29:49;4.07;;;2.47;;
58528;SDS011;44322;52.968;5.816;2023-06-05T06:32:17;4.07;;;2.90;;
58528;SDS011;44322;52.968;5.816;2023-06-05T06:34:43;4.30;;;2.90;;
58528;SDS011;44322;52.968;5.816;2023-06-05T06:37:13;3.25;;;2.55;;
58528;SDS011;44322;52.968;5.816;2023-06-05T06:39:42;4.30;;;2.70;;
58528;SDS011;44322;52.968;5.816;2023-06-05T06:42:09;3.58;;;2.75;;
58528;SDS011;44322;52.968;5.816;2023-06-05T06:44:35;4.53;;;3.10;;
58528;SDS011;44322;52.968;5.816;2023-06-05T06:47:02;4.95;;;2.67;;
58528;SDS011;44322;52.968;5.816;2023-06-05T06:49:27;4.25;;;2.60;;
58528;SDS011;44322;52.968;5.816;2023-06-05T06:51:53;3.58;;;2.80;;
58528;SDS011;44322;52.968;5.816;2023-06-05T06:54:19;5.53;;;2.70;;
58528;SDS011;44322;52.968;5.816;2023-06-05T06:56:44;4.63;;;2.97;;
58528;SDS011;44322;52.968;5.816;2023-06-05T06:59:13;6.53;;;2.60;;
58528;SDS011;44322;52.968;5.816;2023-06-05T07:01:46;4.68;;;3.10;;
58528;SDS011;44322;52.968;5.816;2023-06-05T07:04:12;3.10;;;2.53;;
58528;SDS011;44322;52.968;5.816;2023-06-05T07:06:45;3.47;;;2.58;;
58528;SDS011;44322;52.968;5.816;2023-06-05T07:09:11;4.97;;;2.53;;
58528;SDS011;44322;52.968;5.816;2023-06-05T07:11:37;5.47;;;2.55;;
58528;SDS011;44322;52.968;5.816;2023-06-05T07:14:03;4.60;;;2.75;;
58528;SDS011;44322;52.968;5.816;2023-06-05T07:16:29;3.08;;;2.78;;
58528;SDS011;44322;52.968;5.816;2023-06-05T07:18:56;5.23;;;3.37;;
58528;SDS011;44322;52.968;5.816;2023-06-05T07:21:22;3.90;;;2.60;;
58528;SDS011;44322;52.968;5.816;2023-06-05T07:23:48;4.32;;;2.70;;
58528;SDS011;44322;52.968;5.816;2023-06-05T07:26:17;4.25;;;3.22;;
58528;SDS011;44322;52.968;5.816;2023-06-05T07:28:43;5.50;;;3.33;;
58528;SDS011;44322;52.968;5.816;2023-06-05T07:31:09;5.88;;;3.10;;
58528;SDS011;44322;52.968;5.816;2023-06-05T07:33:35;4.88;;;3.17;;
58528;SDS011;44322;52.968;5.816;2023-06-05T07:36:01;5.00;;;3.00;;
58528;SDS011;44322;52.968;5.816;2023-06-05T07:38:27;5.90;;;3.28;;
58528;SDS011;44322;52.968;5.816;2023-06-05T07:40:52;4.30;;;2.95;;
58528;SDS011;44322;52.968;5.816;2023-06-05T07:43:18;4.55;;;2.90;;
58528;SDS011;44322;52.968;5.816;2023-06-05T07:45:44;3.65;;;2.67;;
58528;SDS011;44322;52.968;5.816;2023-06-05T07:48:09;4.13;;;3.15;;
58528;SDS011;44322;52.968;5.816;2023-06-05T07:50:35;3.67;;;2.97;;
58528;SDS011;44322;52.968;5.816;2023-06-05T07:53:01;3.47;;;2.95;;
58528;SDS011;44322;52.968;5.816;2023-06-05T07:55:26;3.97;;;3.20;;
58528;SDS011;44322;52.968;5.816;2023-06-05T07:57:53;4.38;;;3.38;;
58528;SDS011;44322;52.968;5.816;2023-06-05T08:00:20;6.47;;;3.78;;
58528;SDS011;44322;52.968;5.816;2023-06-05T08:02:46;6.55;;;3.50;;
58528;SDS011;44322;52.968;5.816;2023-06-05T08:05:14;6.60;;;3.85;;
58528;SDS011;44322;52.968;5.816;2023-06-05T08:07:41;7.65;;;4.05;;
58528;SDS011;44322;52.968;5.816;2023-06-05T08:10:07;4.78;;;3.42;;
58528;SDS011;44322;52.968;5.816;2023-06-05T08:12:34;4.53;;;3.45;;
58528;SDS011;44322;52.968;5.816;2023-06-05T08:14:59;4.18;;;3.47;;
58528;SDS011;44322;52.968;5.816;2023-06-05T08:17:25;7.82;;;4.22;;
58528;SDS011;44322;52.968;5.816;2023-06-05T08:19:50;5.82;;;4.30;;
58528;SDS011;44322;52.968;5.816;2023-06-05T08:22:16;7.85;;;4.25;;
58528;SDS011;44322;52.968;5.816;2023-06-05T08:24:41;6.93;;;3.85;;
58528;SDS011;44322;52.968;5.816;2023-06-05T08:27:07;6.57;;;4.32;;
58528;SDS011;44322;52.968;5.816;2023-06-05T08:29:33;5.78;;;4.22;;
58528;SDS011;44322;52.968;5.816;2023-06-05T08:32:04;6.07;;;4.22;;
58528;SDS011;44322;52.968;5.816;2023-06-05T08:34:30;5.38;;;3.92;;
58528;SDS011;44322;52.968;5.816;2023-06-05T08:36:57;5.28;;;4.18;;
58528;SDS011;44322;52.968;5.816;2023-06-05T08:39:26;5.38;;;4.40;;
58528;SDS011;44322;52.968;5.816;2023-06-05T08:41:57;6.55;;;4.40;;
58528;SDS011;44322;52.968;5.816;2023-06-05T08:44:26;7.68;;;4.28;;
58528;SDS011;44322;52.968;5.816;2023-06-05T08:46:54;6.13;;;4.60;;
58528;SDS011;44322;52.968;5.816;2023-06-05T08:49:27;5.82;;;4.63;;
58528;SDS011;44322;52.968;5.816;2023-06-05T08:52:08;6.25;;;4.45;;
58528;SDS011;44322;52.968;5.816;2023-06-05T08:54:35;6.38;;;4.38;;
58528;SDS011;44322;52.968;5.816;2023-06-05T08:57:03;4.40;;;3.63;;
58528;SDS011;44322;52.968;5.816;2023-06-05T08:59:30;5.93;;;4.47;;
58528;SDS011;44322;52.968;5.816;2023-06-05T09:01:59;5.60;;;4.00;;
58528;SDS011;44322;52.968;5.816;2023-06-05T09:04:25;8.18;;;4.53;;
58528;SDS011;44322;52.968;5.816;2023-06-05T09:06:58;6.10;;;4.25;;
58528;SDS011;44322;52.968;5.816;2023-06-05T09:09:24;4.65;;;4.15;;
58528;SDS011;44322;52.968;5.816;2023-06-05T09:12:05;6.05;;;3.97;;
58528;SDS011;44322;52.968;5.816;2023-06-05T09:14:32;7.05;;;4.93;;
58528;SDS011;44322;52.968;5.816;2023-06-05T09:16:58;7.20;;;4.50;;
58528;SDS011;44322;52.968;5.816;2023-06-05T09:19:28;5.85;;;4.00;;
58528;SDS011;44322;52.968;5.816;2023-06-05T09:22:00;5.88;;;4.07;;
58528;SDS011;44322;52.968;5.816;2023-06-05T09:24:26;5.38;;;3.83;;
58528;SDS011;44322;52.968;5.816;2023-06-05T09:27:03;6.93;;;4.50;;
58528;SDS011;44322;52.968;5.816;2023-06-05T09:29:34;6.07;;;4.10;;
58528;SDS011;44322;52.968;5.816;2023-06-05T09:32:05;6.80;;;4.38;;
58528;SDS011;44322;52.968;5.816;2023-06-05T09:34:55;6.95;;;4.55;;
58528;SDS011;44322;52.968;5.816;2023-06-05T09:37:33;6.75;;;4.35;;
58528;SDS011;44322;52.968;5.816;2023-06-05T09:40:03;6.43;;;4.25;;
58528;SDS011;44322;52.968;5.816;2023-06-05T09:42:33;6.47;;;4.25;;
58528;SDS011;44322;52.968;5.816;2023-06-05T09:45:00;4.43;;;3.92;;
58528;SDS011;44322;52.968;5.816;2023-06-05T09:47:26;6.03;;;3.92;;
58528;SDS011;44322;52.968;5.816;2023-06-05T09:49:52;5.72;;;4.03;;
58528;SDS011;44322;52.968;5.816;2023-06-05T09:52:17;6.70;;;4.38;;
58528;SDS011;44322;52.968;5.816;2023-06-05T09:54:44;7.57;;;3.95;;
58528;SDS011;44322;52.968;5.816;2023-06-05T09:57:11;6.20;;;4.50;;
58528;SDS011;44322;52.968;5.816;2023-06-05T09:59:59;6.10;;;4.80;;
58528;SDS011;44322;52.968;5.816;2023-06-05T10:02:25;6.15;;;4.32;;
58528;SDS011;44322;52.968;5.816;2023-06-05T10:05:02;6.90;;;4.18;;
58528;SDS011;44322;52.968;5.816;2023-06-05T10:07:32;6.47;;;4.20;;
58528;SDS011;44322;52.968;5.816;2023-06-05T10:10:00;6.22;;;4.45;;
58528;SDS011;44322;52.968;5.816;2023-06-05T10:12:26;6.75;;;4.68;;
58528;SDS011;44322;52.968;5.816;2023-06-05T10:14:52;7.03;;;4.85;;
58528;SDS011;44322;52.968;5.816;2023-06-05T10:19:45;6.55;;;4.78;;
58528;SDS011;44322;52.968;5.816;2023-06-05T10:22:11;7.65;;;5.20;;
58528;SDS011;44322;52.968;5.816;2023-06-05T10:24:43;7.40;;;4.97;;
58528;SDS011;44322;52.968;5.816;2023-06-05T10:30:21;8.98;;;5.10;;
58528;SDS011;44322;52.968;5.816;2023-06-05T10:38:44;5.68;;;4.43;;
58528;SDS011;44322;52.968;5.816;2023-06-05T10:41:10;6.18;;;5.13;;
58528;SDS011;44322;52.968;5.816;2023-06-05T10:43:47;7.18;;;5.50;;
58528;SDS011;44322;52.968;5.816;2023-06-05T10:51:48;8.38;;;4.82;;
58528;SDS011;44322;52.968;5.816;2023-06-05T10:54:14;7.30;;;5.70;;
58528;SDS011;44322;52.968;5.816;2023-06-05T10:57:04;7.03;;;4.90;;
58528;SDS011;44322;52.968;5.816;2023-06-05T10:59:39;6.80;;;5.15;;
58528;SDS011;44322;52.968;5.816;2023-06-05T11:15:12;8.75;;;5.18;;
58528;SDS011;44322;52.968;5.816;2023-06-05T11:17:39;6.88;;;5.28;;
58528;SDS011;44322;52.968;5.816;2023-06-05T11:30:16;8.35;;;5.60;;
58528;SDS011;44322;52.968;5.816;2023-06-05T11:32:44;7.05;;;4.95;;
58528;SDS011;44322;52.968;5.816;2023-06-05T11:35:10;8.73;;;5.43;;
58528;SDS011;44322;52.968;5.816;2023-06-05T11:37:36;6.22;;;4.45;;
58528;SDS011;44322;52.968;5.816;2023-06-05T11:40:06;6.03;;;4.93;;
58528;SDS011;44322;52.968;5.816;2023-06-05T11:42:36;7.15;;;5.10;;
58528;SDS011;44322;52.968;5.816;2023-06-05T11:45:10;7.38;;;4.97;;
58528;SDS011;44322;52.968;5.816;2023-06-05T11:47:36;7.35;;;4.93;;
58528;SDS011;44322;52.968;5.816;2023-06-05T11:52:37;5.90;;;4.88;;
58528;SDS011;44322;52.968;5.816;2023-06-05T11:55:18;15.48;;;5.50;;
58528;SDS011;44322;52.968;5.816;2023-06-05T11:57:47;68.10;;;9.00;;
58528;SDS011;44322;52.968;5.816;2023-06-05T12:00:13;17.52;;;6.05;;
58528;SDS011;44322;52.968;5.816;2023-06-05T12:02:43;26.23;;;6.10;;
58528;SDS011;44322;52.968;5.816;2023-06-05T12:05:09;10.23;;;5.40;;
58528;SDS011;44322;52.968;5.816;2023-06-05T12:07:35;11.98;;;4.70;;
58528;SDS011;44322;52.968;5.816;2023-06-05T12:10:08;64.50;;;9.52;;
58528;SDS011;44322;52.968;5.816;2023-06-05T12:12:35;16.90;;;5.20;;
58528;SDS011;44322;52.968;5.816;2023-06-05T12:15:21;18.07;;;5.40;;
58528;SDS011;44322;52.968;5.816;2023-06-05T12:17:50;76.45;;;11.13;;
58528;SDS011;44322;52.968;5.816;2023-06-05T12:20:17;12.18;;;5.30;;
58528;SDS011;44322;52.968;5.816;2023-06-05T12:22:43;13.18;;;5.35;;
58528;SDS011;44322;52.968;5.816;2023-06-05T12:25:18;28.10;;;7.07;;
58528;SDS011;44322;52.968;5.816;2023-06-05T12:27:45;23.25;;;5.93;;
58528;SDS011;44322;52.968;5.816;2023-06-05T12:30:11;57.30;;;8.73;;
58528;SDS011;44322;52.968;5.816;2023-06-05T12:32:38;15.27;;;4.90;;
58528;SDS011;44322;52.968;5.816;2023-06-05T12:35:04;9.23;;;4.40;;
58528;SDS011;44322;52.968;5.816;2023-06-05T12:37:32;13.15;;;4.72;;
58528;SDS011;44322;52.968;5.816;2023-06-05T12:40:02;8.02;;;4.40;;
58528;SDS011;44322;52.968;5.816;2023-06-05T12:42:36;10.00;;;4.70;;
58528;SDS011;44322;52.968;5.816;2023-06-05T12:45:03;5.28;;;3.83;;
58528;SDS011;44322;52.968;5.816;2023-06-05T12:47:32;7.97;;;4.38;;
58528;SDS011;44322;52.968;5.816;2023-06-05T12:49:58;7.88;;;4.30;;
58528;SDS011;44322;52.968;5.816;2023-06-05T12:52:24;6.68;;;5.15;;
58528;SDS011;44322;52.968;5.816;2023-06-05T12:54:53;6.60;;;4.50;;
58528;SDS011;44322;52.968;5.816;2023-06-05T12:57:20;6.63;;;4.90;;
58528;SDS011;44322;52.968;5.816;2023-06-05T12:59:46;6.63;;;4.10;;
58528;SDS011;44322;52.968;5.816;2023-06-05T13:02:12;7.68;;;4.50;;
58528;SDS011;44322;52.968;5.816;2023-06-05T13:04:38;6.78;;;4.60;;
58528;SDS011;44322;52.968;5.816;2023-06-05T13:07:05;5.63;;;4.43;;
58528;SDS011;44322;52.968;5.816;2023-06-05T13:09:31;5.63;;;4.22;;
58528;SDS011;44322;52.968;5.816;2023-06-05T13:11:57;4.65;;;3.85;;
58528;SDS011;44322;52.968;5.816;2023-06-05T13:14:25;5.13;;;4.20;;
58528;SDS011;44322;52.968;5.816;2023-06-05T13:16:51;5.43;;;4.57;;
58528;SDS011;44322;52.968;5.816;2023-06-05T13:19:17;4.70;;;4.13;;
58528;SDS011;44322;52.968;5.816;2023-06-05T13:21:42;6.05;;;4.10;;
58528;SDS011;44322;52.968;5.816;2023-06-05T13:24:08;5.25;;;4.40;;
58528;SDS011;44322;52.968;5.816;2023-06-05T13:26:34;6.45;;;5.00;;
58528;SDS011;44322;52.968;5.816;2023-06-05T13:28:59;6.25;;;4.45;;
58528;SDS011;44322;52.968;5.816;2023-06-05T13:31:25;5.63;;;4.40;;
58528;SDS011;44322;52.968;5.816;2023-06-05T13:33:51;5.30;;;4.50;;
58528;SDS011;44322;52.968;5.816;2023-06-05T13:36:16;5.28;;;3.97;;
58528;SDS011;44322;52.968;5.816;2023-06-05T13:38:42;6.72;;;4.60;;
58528;SDS011;44322;52.968;5.816;2023-06-05T13:41:08;18.65;;;5.78;;
58528;SDS011;44322;52.968;5.816;2023-06-05T13:43:33;7.18;;;4.43;;
58528;SDS011;44322;52.968;5.816;2023-06-05T13:46:02;6.38;;;4.50;;
58528;SDS011;44322;52.968;5.816;2023-06-05T13:48:29;9.95;;;4.78;;
58528;SDS011;44322;52.968;5.816;2023-06-05T13:50:55;6.60;;;4.07;;
58528;SDS011;44322;52.968;5.816;2023-06-05T13:53:22;6.60;;;4.93;;
58528;SDS011;44322;52.968;5.816;2023-06-05T13:55:49;7.32;;;3.95;;
58528;SDS011;44322;52.968;5.816;2023-06-05T13:58:14;5.85;;;4.55;;
58528;SDS011;44322;52.968;5.816;2023-06-05T14:00:42;5.70;;;4.00;;
58528;SDS011;44322;52.968;5.816;2023-06-05T14:03:08;6.72;;;5.05;;
58528;SDS011;44322;52.968;5.816;2023-06-05T14:05:34;7.20;;;4.63;;
58528;SDS011;44322;52.968;5.816;2023-06-05T14:07:59;7.20;;;5.00;;
58528;SDS011;44322;52.968;5.816;2023-06-05T14:10:25;7.32;;;5.00;;
58528;SDS011;44322;52.968;5.816;2023-06-05T14:12:51;7.15;;;5.35;;
58528;SDS011;44322;52.968;5.816;2023-06-05T14:15:17;9.93;;;5.78;;
58528;SDS011;44322;52.968;5.816;2023-06-05T14:17:44;9.80;;;6.15;;
58528;SDS011;44322;52.968;5.816;2023-06-05T14:20:11;8.60;;;6.15;;
58528;SDS011;44322;52.968;5.816;2023-06-05T14:22:37;9.95;;;6.10;;
58528;SDS011;44322;52.968;5.816;2023-06-05T14:25:03;9.10;;;6.15;;
58528;SDS011;44322;52.968;5.816;2023-06-05T14:27:30;8.37;;;6.00;;
58528;SDS011;44322;52.968;5.816;2023-06-05T14:29:55;10.45;;;6.85;;
58528;SDS011;44322;52.968;5.816;2023-06-05T14:32:21;10.50;;;6.63;;
58528;SDS011;44322;52.968;5.816;2023-06-05T14:34:46;10.43;;;6.05;;
58528;SDS011;44322;52.968;5.816;2023-06-05T14:37:14;11.63;;;6.70;;
58528;SDS011;44322;52.968;5.816;2023-06-05T14:39:40;10.32;;;7.00;;
58528;SDS011;44322;52.968;5.816;2023-06-05T14:42:06;9.10;;;6.15;;
58528;SDS011;44322;52.968;5.816;2023-06-05T14:44:31;12.30;;;6.95;;
58528;SDS011;44322;52.968;5.816;2023-06-05T14:46:57;9.40;;;6.18;;
58528;SDS011;44322;52.968;5.816;2023-06-05T14:49:23;10.20;;;6.32;;
58528;SDS011;44322;52.968;5.816;2023-06-05T14:51:50;8.82;;;5.85;;
58528;SDS011;44322;52.968;5.816;2023-06-05T14:54:15;9.43;;;6.38;;
58528;SDS011;44322;52.968;5.816;2023-06-05T14:56:42;9.30;;;6.60;;
58528;SDS011;44322;52.968;5.816;2023-06-05T14:59:07;9.25;;;5.97;;
58528;SDS011;44322;52.968;5.816;2023-06-05T15:01:33;9.88;;;6.35;;
58528;SDS011;44322;52.968;5.816;2023-06-05T15:03:59;8.52;;;6.30;;
58528;SDS011;44322;52.968;5.816;2023-06-05T15:06:24;11.20;;;6.70;;
58528;SDS011;44322;52.968;5.816;2023-06-05T15:08:50;9.43;;;6.30;;
58528;SDS011;44322;52.968;5.816;2023-06-05T15:11:15;9.23;;;6.43;;
58528;SDS011;44322;52.968;5.816;2023-06-05T15:13:41;8.80;;;6.40;;
58528;SDS011;44322;52.968;5.816;2023-06-05T15:16:07;8.20;;;5.72;;
58528;SDS011;44322;52.968;5.816;2023-06-05T15:18:33;11.10;;;6.80;;
58528;SDS011;44322;52.968;5.816;2023-06-05T15:20:59;11.40;;;6.85;;
58528;SDS011;44322;52.968;5.816;2023-06-05T15:23:24;9.68;;;6.30;;
58528;SDS011;44322;52.968;5.816;2023-06-05T15:25:50;7.93;;;6.07;;
58528;SDS011;44322;52.968;5.816;2023-06-05T15:28:16;11.60;;;6.70;;
58528;SDS011;44322;52.968;5.816;2023-06-05T15:30:42;9.40;;;6.35;;
58528;SDS011;44322;52.968;5.816;2023-06-05T15:33:08;9.15;;;5.85;;
58528;SDS011;44322;52.968;5.816;2023-06-05T15:35:33;10.20;;;6.97;;
58528;SDS011;44322;52.968;5.816;2023-06-05T15:37:59;10.02;;;6.07;;
58528;SDS011;44322;52.968;5.816;2023-06-05T15:40:25;12.18;;;7.32;;
58528;SDS011;44322;52.968;5.816;2023-06-05T15:43:02;11.57;;;7.97;;
58528;SDS011;44322;52.968;5.816;2023-06-05T15:45:31;11.68;;;7.43;;
58528;SDS011;44322;52.968;5.816;2023-06-05T15:47:58;9.93;;;6.55;;